createdAt,value
2017-08-14T00:00:31.025Z,76.32
2017-08-14T00:03:03.152Z,76.15
2017-08-14T00:05:31.860Z,76.42
2017-08-14T00:08:00.551Z,76.28
2017-08-14T00:10:29.296Z,76.44
2017-08-14T00:13:01.987Z,76.54
2017-08-14T00:15:32.103Z,76.45
2017-08-14T00:18:00.789Z,76.49
2017-08-14T00:20:29.480Z,76.58
2017-08-14T00:23:00.260Z,76.45
2017-08-14T00:25:28.910Z,76.48
2017-08-14T00:27:57.668Z,76.58
2017-08-14T00:30:26.370Z,76.59
2017-08-14T00:32:55.005Z,76.76
2017-08-14T00:35:23.718Z,76.92
2017-08-14T00:37:54.115Z,76.88
2017-08-14T00:40:22.804Z,76.90
2017-08-14T00:42:51.561Z,76.79
2017-08-14T00:45:20.265Z,76.81
2017-08-14T00:47:49.015Z,76.83
2017-08-14T00:50:17.792Z,77.11
2017-08-14T00:52:47.287Z,76.92
2017-08-14T00:55:15.995Z,76.91
2017-08-14T00:57:44.804Z,76.85
2017-08-14T01:00:13.164Z,76.90
2017-08-14T01:02:42.155Z,77.10
2017-08-14T01:05:11.762Z,76.96
2017-08-14T01:07:41.260Z,76.98
2017-08-14T01:10:10.084Z,77.04
2017-08-14T01:12:38.873Z,77.27
2017-08-14T01:15:08.555Z,77.31
2017-08-14T01:17:37.292Z,77.04
2017-08-14T01:20:06.901Z,77.08
2017-08-14T01:22:35.616Z,77.20
2017-08-14T01:25:04.365Z,77.39
2017-08-14T01:27:33.047Z,77.34
2017-08-14T01:30:02.772Z,77.39
2017-08-14T01:32:31.711Z,77.35
2017-08-14T01:35:00.477Z,77.32
2017-08-14T01:37:29.211Z,77.15
2017-08-14T01:39:57.860Z,77.25
2017-08-14T01:42:26.298Z,77.43
2017-08-14T01:44:55.003Z,77.54
2017-08-14T01:47:24.594Z,77.38
2017-08-14T01:49:53.310Z,77.66
2017-08-14T01:52:22.022Z,77.42
2017-08-14T01:54:50.685Z,77.40
2017-08-14T01:57:19.454Z,77.50
2017-08-14T01:59:48.284Z,77.39
2017-08-14T02:02:16.995Z,77.50
2017-08-14T02:04:45.657Z,77.54
2017-08-14T02:07:14.473Z,77.47
2017-08-14T02:09:43.209Z,77.58
2017-08-14T02:12:11.883Z,77.73
2017-08-14T02:14:40.452Z,77.58
2017-08-14T02:17:09.143Z,77.71
2017-08-14T02:19:37.660Z,77.71
2017-08-14T02:22:06.368Z,77.68
2017-08-14T02:24:35.030Z,77.74
2017-08-14T02:27:03.751Z,77.67
2017-08-14T02:29:32.563Z,77.92
2017-08-14T02:32:01.263Z,77.97
2017-08-14T02:34:29.994Z,77.83
2017-08-14T02:36:58.706Z,77.80
2017-08-14T02:39:27.363Z,77.84
2017-08-14T02:41:56.146Z,77.87
2017-08-14T02:44:24.873Z,78.00
2017-08-14T02:46:53.578Z,78.01
2017-08-14T02:49:22.300Z,77.76
2017-08-14T02:51:51.217Z,77.86
2017-08-14T02:54:19.988Z,77.98
2017-08-14T02:56:48.681Z,77.78
2017-08-14T02:59:17.391Z,77.97
2017-08-14T03:01:46.169Z,78.04
2017-08-14T03:04:15.790Z,78.00
2017-08-14T03:06:45.880Z,78.01
2017-08-14T03:09:14.651Z,77.82
2017-08-14T03:11:44.255Z,78.03
2017-08-14T03:14:13.091Z,77.99
2017-08-14T03:16:41.807Z,78.00
2017-08-14T03:19:10.565Z,78.17
2017-08-14T03:21:39.386Z,78.03
2017-08-14T03:24:08.102Z,78.03
2017-08-14T03:26:37.181Z,78.00
2017-08-14T03:29:05.961Z,78.03
2017-08-14T03:31:34.688Z,78.12
2017-08-14T03:34:03.509Z,78.01
2017-08-14T03:36:33.148Z,78.04
2017-08-14T03:39:02.047Z,78.29
2017-08-14T03:41:30.698Z,78.19
2017-08-14T03:43:59.387Z,78.38
2017-08-14T03:46:28.167Z,78.14
2017-08-14T03:48:57.870Z,78.33
2017-08-14T03:51:26.586Z,78.21
2017-08-14T03:53:55.266Z,78.19
2017-08-14T03:56:24.007Z,78.36
2017-08-14T03:58:53.160Z,78.28
2017-08-14T04:01:22.178Z,78.20
2017-08-14T04:03:50.939Z,78.13
2017-08-14T04:06:19.585Z,78.26
2017-08-14T04:08:47.871Z,78.41
2017-08-14T04:14:30.715Z,78.51
2017-08-14T04:17:08.402Z,78.25
2017-08-14T04:19:37.236Z,78.25
2017-08-14T04:22:05.907Z,78.28
2017-08-14T04:24:34.634Z,78.33
2017-08-14T04:27:03.466Z,78.33
2017-08-14T04:29:32.290Z,78.38
2017-08-14T04:32:02.678Z,78.36
2017-08-14T04:34:31.383Z,78.34
2017-08-14T04:37:00.234Z,78.39
2017-08-14T04:39:29.098Z,78.29
2017-08-14T04:41:58.509Z,78.48
2017-08-14T04:44:27.275Z,78.39
2017-08-14T04:46:57.027Z,78.53
2017-08-14T04:49:26.049Z,78.50
2017-08-14T04:51:54.909Z,78.54
2017-08-14T04:54:29.227Z,78.68
2017-08-14T04:57:01.042Z,78.65
2017-08-14T04:59:30.788Z,78.53
2017-08-14T05:01:59.647Z,78.60
2017-08-14T05:04:35.582Z,78.67
2017-08-14T05:07:15.504Z,78.49
2017-08-14T05:09:44.215Z,78.65
2017-08-14T05:12:13.170Z,78.79
2017-08-14T05:14:55.760Z,78.60
2017-08-14T05:17:24.483Z,78.44
2017-08-14T05:19:53.502Z,78.46
2017-08-14T05:22:23.079Z,78.45
2017-08-14T05:24:52.075Z,78.48
2017-08-14T05:27:21.050Z,78.41
2017-08-14T05:29:49.903Z,78.33
2017-08-14T05:32:18.375Z,78.29
2017-08-14T05:34:47.113Z,78.21
2017-08-14T05:37:16.071Z,78.14
2017-08-14T05:39:45.799Z,78.40
2017-08-14T05:42:14.625Z,78.64
2017-08-14T05:44:43.280Z,78.68
2017-08-14T05:47:12.257Z,78.85
2017-08-14T05:49:41.918Z,78.92
2017-08-14T05:52:10.611Z,79.16
2017-08-14T05:54:39.384Z,79.35
2017-08-14T05:57:08.381Z,79.52
2017-08-14T05:59:37.196Z,79.38
2017-08-14T06:02:06.663Z,79.48
2017-08-14T06:04:35.789Z,79.56
2017-08-14T06:07:04.946Z,79.54
2017-08-14T06:09:34.103Z,79.51
2017-08-14T06:12:03.710Z,79.32
2017-08-14T06:14:33.561Z,79.47
2017-08-14T06:17:02.354Z,79.59
2017-08-14T06:19:31.161Z,79.41
2017-08-14T06:21:59.908Z,79.43
2017-08-14T06:24:28.800Z,79.56
2017-08-14T06:26:58.516Z,79.36
2017-08-14T06:29:27.195Z,79.21
2017-08-14T06:31:55.944Z,79.08
2017-08-14T06:34:24.701Z,79.25
2017-08-14T06:36:53.452Z,78.94
2017-08-14T06:39:23.048Z,79.00
2017-08-14T06:41:52.666Z,78.91
2017-08-14T06:44:21.257Z,78.99
2017-08-14T06:46:50.022Z,78.77
2017-08-14T06:49:18.690Z,78.67
2017-08-14T06:51:47.388Z,78.62
2017-08-14T06:54:16.158Z,78.60
2017-08-14T06:56:44.854Z,78.58
2017-08-14T06:59:13.546Z,78.63
2017-08-14T07:01:43.228Z,78.53
2017-08-14T07:04:11.997Z,78.54
2017-08-14T07:06:40.653Z,78.42
2017-08-14T07:09:09.348Z,78.56
2017-08-14T07:11:38.061Z,78.60
2017-08-14T07:14:06.784Z,78.62
2017-08-14T07:16:35.449Z,78.52
2017-08-14T07:19:04.142Z,78.59
2017-08-14T07:21:32.829Z,78.42
2017-08-14T07:24:01.527Z,78.42
2017-08-14T07:26:30.252Z,78.19
2017-08-14T07:28:58.910Z,78.10
2017-08-14T07:31:27.593Z,78.12
2017-08-14T07:33:56.415Z,77.94
2017-08-14T07:36:25.069Z,77.89
2017-08-14T07:38:53.823Z,77.81
2017-08-14T07:41:22.484Z,77.73
2017-08-14T07:43:51.209Z,77.64
2017-08-14T07:46:19.898Z,77.59
2017-08-14T07:48:48.652Z,77.49
2017-08-14T07:51:17.597Z,77.42
2017-08-14T07:53:46.305Z,77.46
2017-08-14T07:56:14.971Z,77.38
2017-08-14T07:58:43.709Z,77.31
2017-08-14T08:01:12.453Z,77.19
2017-08-14T08:03:41.122Z,77.12
2017-08-14T08:06:09.775Z,77.01
2017-08-14T08:08:38.514Z,76.93
2017-08-14T08:11:07.198Z,76.79
2017-08-14T08:13:35.930Z,76.68
2017-08-14T08:16:04.621Z,76.59
2017-08-14T08:18:33.289Z,76.48
2017-08-14T08:21:02.025Z,76.45
2017-08-14T08:23:30.778Z,76.28
2017-08-14T08:25:59.461Z,76.12
2017-08-14T08:28:28.227Z,75.96
2017-08-14T08:30:56.939Z,75.86
2017-08-14T08:33:25.661Z,75.74
2017-08-14T08:35:54.382Z,75.65
2017-08-14T08:38:23.126Z,75.65
2017-08-14T08:40:52.476Z,75.60
2017-08-14T08:43:21.008Z,75.58
2017-08-14T08:45:49.771Z,75.53
2017-08-14T08:48:18.466Z,75.37
2017-08-14T08:50:47.255Z,75.26
2017-08-14T08:53:15.970Z,75.17
2017-08-14T08:55:44.640Z,75.04
2017-08-14T08:58:13.360Z,74.86
2017-08-14T09:00:42.009Z,74.76
2017-08-14T09:03:10.746Z,74.60
2017-08-14T09:05:40.308Z,74.49
2017-08-14T09:08:09.043Z,74.36
2017-08-14T09:10:37.752Z,74.24
2017-08-14T09:13:06.438Z,74.20
2017-08-14T09:15:35.267Z,74.12
2017-08-14T09:18:03.932Z,73.99
2017-08-14T09:20:32.623Z,73.88
2017-08-14T09:23:04.650Z,73.77
2017-08-14T09:25:33.490Z,73.59
2017-08-14T09:28:02.969Z,73.24
2017-08-14T09:30:31.626Z,73.22
2017-08-14T09:33:01.631Z,73.01
2017-08-14T09:35:30.333Z,72.92
2017-08-14T09:37:59.086Z,72.48
2017-08-14T09:40:27.766Z,72.59
2017-08-14T09:42:56.449Z,72.29
2017-08-14T09:45:26.383Z,72.11
2017-08-14T09:47:55.063Z,71.90
2017-08-14T09:50:23.748Z,71.30
2017-08-14T09:52:52.464Z,71.18
2017-08-14T09:55:21.169Z,70.92
2017-08-14T09:57:50.872Z,70.53
2017-08-14T10:00:19.616Z,70.41
2017-08-14T10:02:48.352Z,70.50
2017-08-14T10:05:17.080Z,70.27
2017-08-14T10:07:45.847Z,70.10
2017-08-14T10:10:14.517Z,70.08
2017-08-14T10:12:44.195Z,69.83
2017-08-14T10:15:12.914Z,70.19
2017-08-14T10:17:41.579Z,69.66
2017-08-14T10:20:10.304Z,69.57
2017-08-14T10:22:39.009Z,69.44
2017-08-14T10:25:08.729Z,69.26
2017-08-14T10:27:37.467Z,69.30
2017-08-14T10:30:06.199Z,69.21
2017-08-14T10:32:34.952Z,68.98
2017-08-14T10:35:03.681Z,69.28
2017-08-14T10:37:32.416Z,69.28
2017-08-14T10:40:01.197Z,69.16
2017-08-14T10:42:29.971Z,69.11
2017-08-14T10:44:59.492Z,69.09
2017-08-14T10:47:28.194Z,68.86
2017-08-14T10:49:56.892Z,68.80
2017-08-14T10:52:25.665Z,68.91
2017-08-14T10:54:54.382Z,68.88
2017-08-14T10:57:23.125Z,68.70
2017-08-14T10:59:51.810Z,68.84
2017-08-14T11:02:20.604Z,68.73
2017-08-14T11:04:49.326Z,68.71
2017-08-14T11:07:17.984Z,68.74
2017-08-14T11:09:46.636Z,68.82
2017-08-14T11:12:16.191Z,68.71
2017-08-14T11:14:45.147Z,68.79
2017-08-14T11:17:13.796Z,68.81
2017-08-14T11:19:42.984Z,68.73
2017-08-14T11:22:11.638Z,68.55
2017-08-14T11:24:40.359Z,68.75
2017-08-14T11:27:08.746Z,68.80
2017-08-14T11:29:37.802Z,68.80
2017-08-14T11:32:06.523Z,68.61
2017-08-14T11:34:35.222Z,68.68
2017-08-14T11:37:04.008Z,68.41
2017-08-14T11:39:32.756Z,68.40
2017-08-14T11:42:01.394Z,68.42
2017-08-14T11:44:30.732Z,68.31
2017-08-14T11:46:59.383Z,68.07
2017-08-14T11:49:28.140Z,68.22
2017-08-14T11:51:56.890Z,68.40
2017-08-14T11:54:25.633Z,68.20
2017-08-14T11:56:54.318Z,68.08
2017-08-14T11:59:23.068Z,68.11
2017-08-14T12:01:51.835Z,67.92
2017-08-14T12:04:20.591Z,67.78
2017-08-14T12:06:49.293Z,67.61
2017-08-14T12:09:17.822Z,67.57
2017-08-14T12:11:46.541Z,67.65
2017-08-14T12:14:15.187Z,67.11
2017-08-14T12:16:43.919Z,67.11
2017-08-14T12:19:12.611Z,67.46
2017-08-14T12:21:41.459Z,67.12
2017-08-14T12:24:10.122Z,67.27
2017-08-14T12:26:38.828Z,67.13
2017-08-14T12:29:07.585Z,66.87
2017-08-14T12:31:36.253Z,66.44
2017-08-14T12:34:04.986Z,66.53
2017-08-14T12:36:33.664Z,66.49
2017-08-14T12:39:02.357Z,66.83
2017-08-14T12:41:31.094Z,66.49
2017-08-14T12:43:59.752Z,65.99
2017-08-14T12:46:28.468Z,66.31
2017-08-14T12:48:57.186Z,65.77
2017-08-14T12:51:25.861Z,65.60
2017-08-14T12:53:54.575Z,65.89
2017-08-14T12:56:23.251Z,65.00
2017-08-14T12:58:52.066Z,65.61
2017-08-14T13:01:20.748Z,65.63
2017-08-14T13:03:49.489Z,65.49
2017-08-14T13:06:18.170Z,65.35
2017-08-14T13:08:46.829Z,65.10
2017-08-14T13:11:15.587Z,64.65
2017-08-14T13:13:45.165Z,65.38
2017-08-14T13:16:13.806Z,64.89
2017-08-14T13:18:43.466Z,65.08
2017-08-14T13:21:12.136Z,64.97
2017-08-14T13:23:40.871Z,65.08
2017-08-14T13:26:09.680Z,64.51
2017-08-14T13:28:39.146Z,64.58
2017-08-14T13:31:07.849Z,64.39
2017-08-14T13:33:36.558Z,64.04
2017-08-14T13:36:05.317Z,63.88
2017-08-14T13:38:34.039Z,64.23
2017-08-14T13:41:02.771Z,64.10
2017-08-14T13:43:31.542Z,63.51
2017-08-14T13:46:00.212Z,63.72
2017-08-14T13:48:28.947Z,63.34
2017-08-14T13:50:57.660Z,63.57
2017-08-14T13:53:26.404Z,63.85
2017-08-14T13:55:55.255Z,63.90
2017-08-14T13:58:23.964Z,63.00
2017-08-14T14:00:52.630Z,63.08
2017-08-14T14:03:21.405Z,62.89
2017-08-14T14:05:50.243Z,63.24
2017-08-14T14:08:18.920Z,63.36
2017-08-14T14:10:47.701Z,62.93
2017-08-14T14:13:16.344Z,62.89
2017-08-14T14:15:45.075Z,62.98
2017-08-14T14:18:13.827Z,62.36
2017-08-14T14:20:42.791Z,62.49
2017-08-14T14:23:11.486Z,62.77
2017-08-14T14:25:40.192Z,62.79
2017-08-14T14:28:08.864Z,62.05
2017-08-14T14:30:37.576Z,61.90
2017-08-14T14:33:06.284Z,62.42
2017-08-14T14:35:35.008Z,62.27
2017-08-14T14:38:03.714Z,61.93
2017-08-14T14:40:32.386Z,61.72
2017-08-14T14:43:02.638Z,61.80
2017-08-14T14:45:31.353Z,62.04
2017-08-14T14:48:00.772Z,61.08
2017-08-14T14:50:29.478Z,61.45
2017-08-14T14:53:04.790Z,61.23
2017-08-14T14:55:34.514Z,61.00
2017-08-14T14:58:03.256Z,61.50
2017-08-14T15:00:31.961Z,60.99
2017-08-14T15:03:02.583Z,61.15
2017-08-14T15:05:31.293Z,61.24
2017-08-14T15:08:00.037Z,60.77
2017-08-14T15:10:28.720Z,61.28
2017-08-14T15:13:00.759Z,60.58
2017-08-14T15:15:29.434Z,61.05
2017-08-14T15:20:38.030Z,60.29
2017-08-14T15:23:06.917Z,60.72
2017-08-14T15:25:35.967Z,60.66
2017-08-14T15:28:05.415Z,60.43
2017-08-14T15:30:34.368Z,60.15
2017-08-14T15:33:04.981Z,60.83
2017-08-14T15:35:33.895Z,60.49
2017-08-14T15:38:02.581Z,60.45
2017-08-14T15:40:31.320Z,60.06
2017-08-14T15:43:03.130Z,59.94
2017-08-14T15:45:31.876Z,60.12
2017-08-14T15:50:24.121Z,60.37
2017-08-14T15:53:02.889Z,60.38
2017-08-14T15:57:33.993Z,60.49
2017-08-14T16:00:09.485Z,60.79
2017-08-14T16:02:44.806Z,60.63
2017-08-14T16:05:20.394Z,60.67
2017-08-14T16:07:56.050Z,60.83
2017-08-14T16:10:31.841Z,60.62
2017-08-14T16:13:07.206Z,60.63
2017-08-14T16:15:43.749Z,61.09
2017-08-14T16:18:19.579Z,61.09
2017-08-14T16:20:55.260Z,61.01
2017-08-14T16:23:28.479Z,60.56
2017-08-14T16:26:01.029Z,60.81
2017-08-14T16:28:34.347Z,56.55
2017-08-14T16:31:07.132Z,59.10
2017-08-14T16:33:40.177Z,59.62
2017-08-14T16:36:13.599Z,55.99
2017-08-14T16:38:46.883Z,60.14
2017-08-14T16:41:20.302Z,57.16
2017-08-14T16:43:53.863Z,57.79
2017-08-14T16:46:26.966Z,57.40
2017-08-14T16:48:59.426Z,57.55
2017-08-14T16:51:32.825Z,57.23
2017-08-14T16:54:06.175Z,57.35
2017-08-14T16:56:39.588Z,57.58
2017-08-14T16:59:13.760Z,59.63
2017-08-14T17:01:46.272Z,60.26
2017-08-14T17:04:19.683Z,60.56
2017-08-14T17:06:55.370Z,60.74
2017-08-14T17:12:22.588Z,61.32
2017-08-14T17:14:56.171Z,61.50
2017-08-14T17:17:31.969Z,61.74
2017-08-14T17:20:04.711Z,61.94
2017-08-14T17:22:37.981Z,62.07
2017-08-14T17:25:12.415Z,62.23
2017-08-14T17:27:50.016Z,62.43
2017-08-14T17:30:26.215Z,62.56
2017-08-14T17:35:38.990Z,62.83
2017-08-14T17:38:15.708Z,63.18
2017-08-14T17:40:50.032Z,63.20
2017-08-14T17:43:22.853Z,63.39
2017-08-14T17:45:56.551Z,63.45
2017-08-14T17:48:29.361Z,63.47
2017-08-14T17:51:01.969Z,63.80
2017-08-14T17:53:35.406Z,64.01
2017-08-14T17:56:08.644Z,64.12
2017-08-14T17:58:41.957Z,64.30
2017-08-14T18:01:15.260Z,64.44
2017-08-14T18:03:49.746Z,64.67
2017-08-14T18:06:32.470Z,64.66
2017-08-14T18:09:10.702Z,64.95
2017-08-14T18:11:51.838Z,65.03
2017-08-14T18:14:29.543Z,65.25
2017-08-14T18:17:05.332Z,65.47
2017-08-14T18:19:57.794Z,65.47
2017-08-14T18:22:42.217Z,65.49
2017-08-14T18:28:14.048Z,65.61
2017-08-14T18:30:53.840Z,65.83
2017-08-14T18:33:33.035Z,65.95
2017-08-14T18:36:14.791Z,66.15
2017-08-14T18:38:53.453Z,66.20
2017-08-14T18:44:10.966Z,66.34
2017-08-14T18:46:56.324Z,66.33
2017-08-14T18:49:38.193Z,66.37
2017-08-14T18:52:22.139Z,66.53
2017-08-14T18:55:06.791Z,66.65
2017-08-14T18:57:48.709Z,66.76
2017-08-14T19:00:23.310Z,66.76
2017-08-14T19:02:56.810Z,66.89
2017-08-14T19:05:32.394Z,66.81
2017-08-14T19:08:10.978Z,66.88
2017-08-14T19:10:56.663Z,67.04
2017-08-14T19:13:39.341Z,66.94
2017-08-14T19:16:18.523Z,67.05
2017-08-14T19:21:51.433Z,66.93
2017-08-14T19:30:13.691Z,67.00
2017-08-14T19:32:58.256Z,67.15
2017-08-14T19:35:42.312Z,67.23
2017-08-14T19:38:26.250Z,67.18
2017-08-14T19:41:10.272Z,67.31
2017-08-14T19:43:48.387Z,67.25
2017-08-14T19:46:32.386Z,67.45
2017-08-14T19:49:20.421Z,67.39
2017-08-14T19:52:03.705Z,67.34
2017-08-14T19:54:37.112Z,67.51
2017-08-14T19:57:10.722Z,67.47
2017-08-14T19:59:43.996Z,67.49
2017-08-14T20:02:17.423Z,67.48
2017-08-14T20:04:50.744Z,67.61
2017-08-14T20:07:23.959Z,67.64
2017-08-14T20:09:58.016Z,67.76
2017-08-14T20:12:30.818Z,67.82
2017-08-14T20:15:03.911Z,67.79
2017-08-14T20:17:37.168Z,67.84
2017-08-14T20:20:14.594Z,67.85
2017-08-14T20:22:48.097Z,67.98
2017-08-14T20:25:21.380Z,68.02
2017-08-14T20:27:55.611Z,68.06
2017-08-14T20:30:29.051Z,68.13
2017-08-14T20:33:04.257Z,68.14
2017-08-14T20:35:36.798Z,68.32
2017-08-14T20:38:10.223Z,68.21
2017-08-14T20:40:43.642Z,68.22
2017-08-14T20:43:16.943Z,68.27
2017-08-14T20:45:50.272Z,68.20
2017-08-14T20:48:23.511Z,68.45
2017-08-14T20:50:56.788Z,68.32
2017-08-14T20:53:30.168Z,68.44
2017-08-14T20:56:03.491Z,68.46
2017-08-14T20:58:36.436Z,68.54
2017-08-14T21:01:14.612Z,68.75
2017-08-14T21:03:51.737Z,68.76
2017-08-14T21:06:27.445Z,68.72
2017-08-14T21:09:03.006Z,68.96
2017-08-14T21:11:39.371Z,68.88
2017-08-14T21:14:16.088Z,69.08
2017-08-14T21:16:51.138Z,69.21
2017-08-14T21:19:23.912Z,69.11
2017-08-14T21:21:57.394Z,69.31
2017-08-14T21:24:30.845Z,69.34
2017-08-14T21:27:03.877Z,69.47
2017-08-14T21:29:37.284Z,69.45
2017-08-14T21:32:10.401Z,69.51
2017-08-14T21:34:44.355Z,69.49
2017-08-14T21:37:17.156Z,69.54
2017-08-14T21:39:50.530Z,69.56
2017-08-14T21:42:23.891Z,69.74
2017-08-14T21:44:57.752Z,69.64
2017-08-14T21:47:30.817Z,69.58
2017-08-14T21:50:03.912Z,69.75
2017-08-14T21:52:37.169Z,69.85
2017-08-14T21:55:10.551Z,69.75
2017-08-14T21:57:43.974Z,69.79
2017-08-14T22:00:17.301Z,69.79
2017-08-14T22:02:50.613Z,69.84
2017-08-14T22:05:23.842Z,69.84
2017-08-14T22:07:57.168Z,69.81
2017-08-14T22:10:30.369Z,69.83
2017-08-14T22:13:03.991Z,69.91
2017-08-14T22:15:37.146Z,69.91
2017-08-14T22:18:10.528Z,69.97
2017-08-14T22:20:43.907Z,70.00
2017-08-14T22:23:17.101Z,70.01
2017-08-14T22:25:50.287Z,70.03
2017-08-14T22:28:23.735Z,70.01
2017-08-14T22:30:57.034Z,70.13
2017-08-14T22:33:30.375Z,70.09
2017-08-14T22:36:03.887Z,70.09
2017-08-14T22:38:37.202Z,70.13
2017-08-14T22:41:10.352Z,70.11
2017-08-14T22:43:43.756Z,70.11
2017-08-14T22:46:17.109Z,70.18
2017-08-14T22:48:50.467Z,70.22
2017-08-14T22:51:23.801Z,70.21
2017-08-14T22:53:57.024Z,70.20
2017-08-14T22:56:30.402Z,70.38
2017-08-14T22:59:04.062Z,70.53
2017-08-14T23:01:37.252Z,70.40
2017-08-14T23:04:10.680Z,70.56
2017-08-14T23:06:43.884Z,70.72
2017-08-14T23:09:17.234Z,70.47
2017-08-14T23:11:50.639Z,70.53
2017-08-14T23:14:23.672Z,70.59
2017-08-14T23:16:57.150Z,70.59
2017-08-14T23:19:30.923Z,70.68
2017-08-14T23:22:03.570Z,70.54
2017-08-14T23:24:37.141Z,70.62
2017-08-14T23:27:10.727Z,70.67
2017-08-14T23:29:43.626Z,70.68
2017-08-14T23:32:19.293Z,70.57
2017-08-14T23:35:07.316Z,70.64
2017-08-14T23:37:56.061Z,70.68
2017-08-14T23:40:47.024Z,70.69
2017-08-14T23:49:30.849Z,70.95
2017-08-14T23:52:22.320Z,70.84
2017-08-14T23:58:05.925Z,70.89
